Earle, Arkansas
Current Conditions -  °F | °C
As of 11:53 AM on Wednesday 26 Nov 2014 (Local Time) from KAWM Reporting Station
Overcast Overcast  
Wind Chill: 41°   Ceiling: 10000
Heat Index: 48°   Visibility: 10mi
Dew Point: 33°   Wind: 18mph
Humidity: 56%   Direction: 160°SSE
Pressure: 29.99"   Gusts: NA
Location:  35.28°N, 90.47°W
Report Text: KAWM 261753Z AUTO 16016KT 10SM OVC100 09/01 A2999 RMK AO2 PRESFR SLP157 T00890006 10089 21022 58040
Loading
Personal Weather Stations






























Interactive Weather Map New forecast layout! Learn more

10-Day Weather Forecast

Advertisements
Track Severe Weather on mobile